Terminal Aerodrome Forecast
Issued by NWS Jackson, MS

Current Version | Previous Version | Text Only | Print | Product List | Glossary On
Versions: 1 2 3 4 5 6 7 8 9 10 11 12 13
885
FTUS44 KJAN 310538
TAFHBG
TAF
KHBG 310538Z 3106/0106 00000KT P6SM FEW150 SCT250
     FM311030 00000KT 3SM BR FEW050 SCT150 SCT250
     FM311330 VRB05KT P6SM FEW030 SCT050 BKN250
     FM311900 18006KT 6SM -TSRA SCT040 BKN060CB BKN250
     FM010000 18003KT P6SM FEW030 SCT050 BKN150=

USA.gov is the U.S. government's official web portal to all federal, state and local government web resources and services.